createdAt,value
2023-02-07T00:00:54.169Z,79.09
2023-02-07T00:01:35.264Z,79.11
2023-02-07T00:02:16.268Z,79.14
2023-02-07T00:02:57.352Z,78.67
2023-02-07T00:03:37.190Z,78.93
2023-02-07T00:04:24.193Z,78.58
2023-02-07T00:05:19.173Z,78.45
2023-02-07T00:06:36.227Z,79.34
2023-02-07T00:07:30.161Z,79.10
2023-02-07T00:08:24.195Z,79.32
2023-02-07T00:09:21.179Z,79.23
2023-02-07T00:10:03.169Z,79.19
2023-02-07T00:10:43.350Z,79.12
2023-02-07T00:11:26.156Z,79.20
2023-02-07T00:12:06.231Z,79.63
2023-02-07T00:12:47.136Z,79.60
2023-02-07T00:13:27.260Z,79.79
2023-02-07T00:14:08.174Z,80.40
2023-02-07T00:14:48.218Z,79.67
2023-02-07T00:15:28.201Z,79.89
2023-02-07T00:16:10.282Z,80.07
2023-02-07T00:16:50.210Z,80.46
2023-02-07T00:17:30.239Z,81.00
2023-02-07T00:18:11.143Z,80.56
2023-02-07T00:18:52.206Z,80.72
2023-02-07T00:19:32.150Z,80.99
2023-02-07T00:20:13.271Z,80.92
2023-02-07T00:20:59.202Z,80.76
2023-02-07T00:21:39.216Z,81.08
2023-02-07T00:22:20.169Z,81.13
2023-02-07T00:23:00.217Z,81.22
2023-02-07T00:23:41.129Z,81.58
2023-02-07T00:24:21.358Z,81.20
2023-02-07T00:25:01.122Z,81.71
2023-02-07T00:25:41.204Z,81.26
2023-02-07T00:26:24.211Z,81.13
2023-02-07T00:27:04.193Z,81.42
2023-02-07T00:27:45.215Z,80.77
2023-02-07T00:28:25.319Z,81.52
2023-02-07T00:29:06.144Z,80.94
2023-02-07T00:30:00.152Z,80.94
2023-02-07T00:30:54.212Z,81.25
2023-02-07T00:31:43.243Z,81.13
2023-02-07T00:32:17.220Z,81.60
2023-02-07T00:33:05.153Z,81.14
2023-02-07T00:33:39.196Z,81.27
2023-02-07T00:34:26.146Z,81.72
2023-02-07T00:35:00.221Z,81.08
2023-02-07T00:35:47.136Z,81.43
2023-02-07T00:36:25.231Z,81.32
2023-02-07T00:37:06.175Z,81.56
2023-02-07T00:37:46.231Z,81.20
2023-02-07T00:38:27.122Z,81.59
2023-02-07T00:39:12.252Z,81.68
2023-02-07T00:39:52.148Z,82.35
2023-02-07T00:40:32.200Z,82.43
2023-02-07T00:41:13.149Z,82.64
2023-02-07T00:41:53.836Z,82.62
2023-02-07T00:42:35.135Z,83.01
2023-02-07T00:43:28.128Z,83.10
2023-02-07T00:44:10.104Z,82.71
2023-02-07T00:44:50.199Z,82.48
2023-02-07T00:45:30.130Z,82.74
2023-02-07T00:46:25.186Z,82.96
2023-02-07T00:47:19.131Z,83.28
2023-02-07T00:47:59.140Z,83.00
2023-02-07T00:48:40.207Z,83.19
2023-02-07T00:49:20.121Z,82.85
2023-02-07T00:50:00.188Z,84.05
2023-02-07T00:50:40.103Z,84.10
2023-02-07T00:51:21.185Z,83.29
2023-02-07T00:52:01.138Z,83.12
2023-02-07T00:52:41.209Z,82.72
2023-02-07T00:53:21.141Z,82.79
2023-02-07T00:54:02.647Z,82.82
2023-02-07T00:54:43.102Z,82.83
2023-02-07T00:55:23.242Z,82.96
2023-02-07T00:56:04.110Z,83.19
2023-02-07T00:56:44.220Z,83.11
2023-02-07T00:57:24.118Z,83.08
2023-02-07T00:58:04.170Z,82.64
2023-02-07T00:58:45.143Z,82.29
2023-02-07T00:59:25.187Z,82.70
2023-02-07T01:00:06.097Z,83.31
2023-02-07T01:00:46.186Z,83.38
2023-02-07T01:01:27.173Z,82.99
2023-02-07T01:02:07.187Z,83.01
2023-02-07T01:02:47.088Z,83.34
2023-02-07T01:03:27.231Z,83.32
2023-02-07T01:04:08.104Z,83.75
2023-02-07T01:04:48.237Z,83.39
2023-02-07T01:05:28.109Z,83.11
2023-02-07T01:06:08.176Z,83.41
2023-02-07T01:06:48.155Z,82.95
2023-02-07T01:07:29.195Z,82.59
2023-02-07T01:08:10.105Z,82.25
2023-02-07T01:08:50.161Z,81.75
2023-02-07T01:09:30.142Z,81.31
2023-02-07T01:10:11.536Z,81.42
2023-02-07T01:10:52.102Z,81.29
2023-02-07T01:11:34.188Z,80.58
2023-02-07T01:12:14.112Z,80.46
2023-02-07T01:12:54.167Z,80.00
2023-02-07T01:13:34.123Z,80.45
2023-02-07T01:14:14.174Z,80.50
2023-02-07T01:14:54.102Z,80.20
2023-02-07T01:15:34.162Z,80.33
2023-02-07T01:16:14.115Z,80.66
2023-02-07T01:16:54.205Z,80.13
2023-02-07T01:17:35.072Z,80.75
2023-02-07T01:18:16.222Z,80.59
2023-02-07T01:18:57.084Z,80.39
2023-02-07T01:19:37.157Z,80.85
2023-02-07T01:20:18.120Z,80.56
2023-02-07T01:20:58.136Z,81.09
2023-02-07T01:21:38.069Z,80.98
2023-02-07T01:22:18.143Z,81.59
2023-02-07T01:22:58.093Z,81.48
2023-02-07T01:23:38.131Z,81.04
2023-02-07T01:24:18.063Z,81.05
2023-02-07T01:25:02.183Z,81.18
2023-02-07T01:25:44.122Z,81.15
2023-02-07T01:26:24.182Z,81.02
2023-02-07T01:27:04.087Z,81.22
2023-02-07T01:27:44.169Z,81.32
2023-02-07T01:28:24.098Z,81.79
2023-02-07T01:29:04.167Z,81.34
2023-02-07T01:29:44.067Z,81.83
2023-02-07T01:30:24.139Z,81.71
2023-02-07T01:31:04.181Z,81.99
2023-02-07T01:31:48.228Z,81.89
2023-02-07T01:32:28.103Z,81.60
2023-02-07T01:33:08.150Z,82.04
2023-02-07T01:33:48.077Z,82.01
2023-02-07T01:34:28.176Z,81.65
2023-02-07T01:35:08.057Z,82.09
2023-02-07T01:35:48.146Z,82.05
2023-02-07T01:36:29.069Z,81.78
2023-02-07T01:37:09.279Z,81.70
2023-02-07T01:37:49.082Z,81.72
2023-02-07T01:38:29.145Z,82.34
2023-02-07T01:39:10.093Z,82.22
2023-02-07T01:39:50.161Z,82.14
2023-02-07T01:40:30.054Z,82.10
2023-02-07T01:41:10.233Z,82.54
2023-02-07T01:41:50.079Z,82.38
2023-02-07T01:42:34.170Z,82.16
2023-02-07T01:43:22.039Z,82.47
2023-02-07T01:44:13.152Z,82.36
2023-02-07T01:45:27.079Z,82.35
2023-02-07T01:46:07.166Z,82.72
2023-02-07T01:46:48.053Z,82.72
2023-02-07T01:47:30.065Z,82.66
2023-02-07T01:48:09.122Z,82.96
2023-02-07T01:48:57.054Z,82.88
2023-02-07T01:49:36.172Z,82.12
2023-02-07T01:50:23.049Z,81.89
2023-02-07T01:51:00.319Z,81.97
2023-02-07T01:52:03.116Z,82.29
2023-02-07T01:52:44.150Z,82.02
2023-02-07T01:53:33.056Z,81.57
2023-02-07T01:54:11.159Z,81.45
2023-02-07T01:55:04.043Z,81.00
2023-02-07T01:55:42.130Z,81.49
2023-02-07T01:56:32.129Z,81.73
2023-02-07T01:57:18.079Z,81.58
2023-02-07T01:58:13.069Z,81.87
2023-02-07T01:59:07.060Z,81.17
2023-02-07T02:00:02.079Z,81.05
2023-02-07T02:00:56.038Z,81.03
2023-02-07T02:01:50.059Z,81.04
2023-02-07T02:02:40.160Z,80.62
2023-02-07T02:03:14.092Z,80.96
2023-02-07T02:04:03.044Z,81.27
2023-02-07T02:04:37.095Z,81.07
2023-02-07T02:05:25.034Z,81.50
2023-02-07T02:06:00.100Z,81.13
2023-02-07T02:06:48.072Z,80.83
2023-02-07T02:07:23.172Z,80.86
2023-02-07T02:08:03.047Z,80.82
2023-02-07T02:08:43.126Z,80.38
2023-02-07T02:09:24.037Z,80.45
2023-02-07T02:10:04.136Z,79.96
2023-02-07T02:11:07.027Z,79.94
2023-02-07T02:12:18.095Z,79.38
2023-02-07T02:13:31.045Z,79.22
2023-02-07T02:14:40.103Z,78.41
2023-02-07T02:16:12.029Z,79.06
2023-02-07T02:17:33.035Z,78.76
2023-02-07T02:18:48.031Z,79.74
2023-02-07T02:20:03.039Z,79.66
2023-02-07T02:21:47.019Z,78.91
2023-02-07T02:23:12.022Z,79.39
2023-02-07T02:24:38.070Z,78.57
2023-02-07T02:25:55.035Z,79.14
2023-02-07T02:27:38.028Z,78.88
2023-02-07T02:29:21.998Z,78.96
2023-02-07T02:30:33.050Z,79.05
2023-02-07T02:31:53.092Z,79.00
2023-02-07T02:33:00.001Z,79.50
2023-02-07T02:33:52.115Z,79.12
2023-02-07T02:34:47.015Z,79.31
2023-02-07T02:36:13.075Z,79.50
2023-02-07T02:37:47.055Z,79.68
2023-02-07T02:39:06.993Z,81.69
2023-02-07T02:40:12.053Z,82.81
2023-02-07T02:41:17.050Z,82.49
2023-02-07T02:42:18.994Z,83.07
2023-02-07T02:43:22.992Z,83.11
2023-02-07T02:44:24.998Z,83.58
2023-02-07T02:45:34.022Z,82.82
2023-02-07T02:46:41.062Z,83.50
2023-02-07T02:47:35.996Z,83.22
2023-02-07T02:48:29.982Z,83.08
2023-02-07T02:49:27.011Z,82.46
2023-02-07T02:50:33.013Z,82.54
2023-02-07T02:51:26.978Z,81.99
2023-02-07T02:52:07.024Z,81.55
2023-02-07T02:52:50.857Z,81.41
2023-02-07T02:53:30.992Z,81.30
2023-02-07T02:54:11.044Z,81.34
2023-02-07T02:54:50.958Z,81.05
2023-02-07T02:56:04.090Z,81.07
2023-02-07T02:57:05.999Z,80.63
2023-02-07T02:58:12.015Z,80.29
2023-02-07T02:59:34.107Z,79.96
2023-02-07T03:00:55.994Z,79.41
2023-02-07T03:02:12.999Z,79.79
2023-02-07T03:04:03.989Z,79.66
2023-02-07T03:05:17.033Z,79.54
2023-02-07T03:06:58.141Z,79.40
2023-02-07T03:07:51.220Z,79.48
2023-02-07T03:08:43.051Z,79.09
2023-02-07T03:09:40.964Z,78.94
2023-02-07T03:10:50.046Z,78.57
2023-02-07T03:11:30.954Z,79.06
2023-02-07T03:12:41.063Z,78.36
2023-02-07T03:13:39.157Z,78.71
2023-02-07T03:14:37.037Z,78.70
2023-02-07T03:15:38.168Z,79.85
2023-02-07T03:17:02.088Z,79.55
2023-02-07T03:18:05.959Z,79.39
2023-02-07T03:19:22.178Z,79.02
2023-02-07T03:20:50.944Z,78.76
2023-02-07T03:21:54.967Z,78.18
2023-02-07T03:22:49.963Z,77.99
2023-02-07T03:23:44.969Z,78.49
2023-02-07T03:24:47.977Z,78.53
2023-02-07T03:25:42.945Z,78.42
2023-02-07T03:26:37.944Z,78.64
2023-02-07T03:27:34.940Z,78.35
2023-02-07T03:28:30.937Z,78.69
2023-02-07T03:29:26.954Z,78.35
2023-02-07T03:30:13.973Z,78.32
2023-02-07T03:30:56.229Z,78.24
2023-02-07T03:31:37.954Z,78.45
2023-02-07T03:32:20.070Z,77.99
2023-02-07T03:33:03.926Z,77.80
2023-02-07T03:33:44.966Z,77.52
2023-02-07T03:34:29.903Z,77.86
2023-02-07T03:35:29.151Z,78.01
2023-02-07T03:36:35.941Z,77.76
2023-02-07T03:37:44.950Z,77.48
2023-02-07T03:38:38.929Z,77.58
2023-02-07T03:39:33.920Z,77.74
2023-02-07T03:40:27.917Z,77.77
2023-02-07T03:41:15.936Z,77.73
2023-02-07T03:42:04.203Z,78.19
2023-02-07T03:42:53.917Z,77.88
2023-02-07T03:43:37.054Z,77.94
2023-02-07T03:44:19.924Z,77.99
2023-02-07T03:45:02.044Z,78.37
2023-02-07T03:45:42.942Z,78.23
2023-02-07T03:46:24.035Z,78.10
2023-02-07T03:47:04.916Z,78.42
2023-02-07T03:47:44.970Z,78.62
2023-02-07T03:48:25.941Z,78.33
2023-02-07T03:49:07.687Z,78.67
2023-02-07T03:49:47.927Z,78.85
2023-02-07T03:50:27.978Z,78.78
2023-02-07T03:51:08.938Z,78.78
2023-02-07T03:51:49.003Z,79.28
2023-02-07T03:52:29.898Z,79.55
2023-02-07T03:53:09.955Z,79.54
2023-02-07T03:53:56.901Z,79.45
2023-02-07T03:54:30.976Z,79.89
2023-02-07T03:55:25.927Z,80.66
2023-02-07T03:56:19.938Z,81.18
2023-02-07T03:57:13.951Z,81.24
2023-02-07T03:58:07.936Z,80.58
2023-02-07T03:59:01.904Z,81.40
2023-02-07T03:59:55.894Z,81.96
2023-02-07T04:00:49.991Z,81.59
2023-02-07T04:01:36.925Z,81.73
2023-02-07T04:02:11.189Z,81.15
2023-02-07T04:02:57.916Z,81.70
2023-02-07T04:03:32.009Z,81.62
2023-02-07T04:04:18.894Z,81.12
2023-02-07T04:04:59.964Z,81.60
2023-02-07T04:05:40.227Z,81.48
2023-02-07T04:06:21.016Z,81.49
2023-02-07T04:07:00.900Z,81.34
2023-02-07T04:07:40.986Z,81.64
2023-02-07T04:08:20.898Z,81.25
2023-02-07T04:09:02.259Z,81.78
2023-02-07T04:09:42.911Z,81.82
2023-02-07T04:10:23.025Z,81.75
2023-02-07T04:11:04.899Z,81.03
2023-02-07T04:11:44.958Z,80.92
2023-02-07T04:12:24.895Z,80.70
2023-02-07T04:13:05.945Z,80.59
2023-02-07T04:13:45.904Z,80.09
2023-02-07T04:14:26.009Z,79.97
2023-02-07T04:15:10.912Z,80.03
2023-02-07T04:15:50.975Z,79.98
2023-02-07T04:16:30.898Z,79.65
2023-02-07T04:17:12.008Z,80.12
2023-02-07T04:17:51.887Z,79.43
2023-02-07T04:18:31.967Z,80.05
2023-02-07T04:19:11.888Z,79.67
2023-02-07T04:19:51.938Z,79.58
2023-02-07T04:20:31.900Z,79.70
2023-02-07T04:21:14.970Z,79.65
2023-02-07T04:21:54.889Z,80.07
2023-02-07T04:22:36.021Z,80.31
2023-02-07T04:23:22.895Z,79.98
2023-02-07T04:23:56.980Z,80.23
2023-02-07T04:24:43.897Z,80.39
2023-02-07T04:25:18.621Z,81.12
2023-02-07T04:26:05.878Z,81.11
2023-02-07T04:26:40.022Z,81.16
2023-02-07T04:27:26.926Z,81.47
2023-02-07T04:28:01.018Z,81.40
2023-02-07T04:28:48.884Z,80.98
2023-02-07T04:29:22.933Z,80.62
2023-02-07T04:30:10.864Z,81.71
2023-02-07T04:30:44.993Z,81.87
2023-02-07T04:31:31.949Z,81.46
2023-02-07T04:32:05.973Z,80.95
2023-02-07T04:32:52.863Z,81.50
2023-02-07T04:33:27.956Z,81.50
2023-02-07T04:34:07.905Z,81.82
2023-02-07T04:34:47.925Z,81.26
2023-02-07T04:35:30.866Z,81.39
2023-02-07T04:36:11.940Z,81.60
2023-02-07T04:36:51.870Z,81.58
2023-02-07T04:37:31.928Z,81.32
2023-02-07T04:38:12.883Z,81.60
2023-02-07T04:38:52.919Z,81.63
2023-02-07T04:39:32.915Z,81.75
2023-02-07T04:40:13.964Z,81.76
2023-02-07T04:40:53.907Z,82.03
2023-02-07T04:41:33.948Z,81.82
2023-02-07T04:42:13.851Z,81.86
2023-02-07T04:42:53.891Z,81.76
2023-02-07T04:43:33.865Z,82.08
2023-02-07T04:44:13.911Z,82.39
2023-02-07T04:44:53.912Z,82.56
2023-02-07T04:45:34.996Z,82.35
2023-02-07T04:46:14.895Z,82.57
2023-02-07T04:46:54.986Z,82.50
2023-02-07T04:47:34.859Z,82.22
2023-02-07T04:48:14.913Z,82.46
2023-02-07T04:48:55.845Z,81.96
2023-02-07T04:49:36.912Z,81.77
2023-02-07T04:50:16.844Z,81.59
2023-02-07T04:50:56.903Z,81.03
2023-02-07T04:51:37.841Z,81.09
2023-02-07T04:52:17.922Z,81.30
2023-02-07T04:52:57.847Z,81.29
2023-02-07T04:53:37.921Z,81.12
2023-02-07T04:54:18.848Z,81.24
2023-02-07T04:54:58.953Z,81.17
2023-02-07T04:55:40.933Z,81.29
2023-02-07T04:56:20.902Z,81.32
2023-02-07T04:57:00.940Z,81.84
2023-02-07T04:57:41.899Z,82.11
2023-02-07T04:58:21.838Z,82.18
2023-02-07T04:59:01.933Z,82.26
2023-02-07T04:59:41.835Z,82.34
2023-02-07T05:00:21.943Z,82.93
2023-02-07T05:01:02.896Z,82.68
2023-02-07T05:01:43.905Z,82.52
2023-02-07T05:02:25.249Z,82.63
2023-02-07T05:03:06.876Z,82.02
2023-02-07T05:03:47.816Z,82.30
2023-02-07T05:04:27.974Z,82.48
2023-02-07T05:05:07.821Z,83.07
2023-02-07T05:05:48.911Z,82.38
2023-02-07T05:06:28.855Z,82.24
2023-02-07T05:07:08.893Z,82.36
2023-02-07T05:07:48.823Z,82.58
2023-02-07T05:08:28.926Z,82.28
2023-02-07T05:09:08.818Z,82.76
2023-02-07T05:09:48.898Z,82.61
2023-02-07T05:10:28.824Z,82.17
2023-02-07T05:11:09.885Z,81.98
2023-02-07T05:11:49.850Z,81.90
2023-02-07T05:12:29.909Z,81.80
2023-02-07T05:13:10.840Z,81.59
2023-02-07T05:13:50.923Z,81.47
2023-02-07T05:14:30.836Z,81.25
2023-02-07T05:15:11.004Z,80.72
2023-02-07T05:15:50.810Z,80.58
2023-02-07T05:16:31.446Z,80.77
2023-02-07T05:17:11.870Z,81.58
2023-02-07T05:17:52.928Z,81.26
2023-02-07T05:18:32.808Z,81.65
2023-02-07T05:19:12.948Z,81.58
2023-02-07T05:19:52.835Z,81.52
2023-02-07T05:20:32.892Z,81.08
2023-02-07T05:21:12.839Z,80.77
2023-02-07T05:21:53.900Z,80.64
2023-02-07T05:22:34.836Z,80.79
2023-02-07T05:23:14.897Z,81.11
2023-02-07T05:23:55.819Z,80.86
2023-02-07T05:24:35.859Z,80.32
2023-02-07T05:25:15.811Z,80.30
2023-02-07T05:25:56.900Z,80.32
2023-02-07T05:26:37.777Z,80.77
2023-02-07T05:27:18.937Z,80.49
2023-02-07T05:27:58.837Z,80.58
2023-02-07T05:28:38.926Z,81.03
2023-02-07T05:29:18.799Z,80.68
2023-02-07T05:29:59.428Z,80.73
2023-02-07T05:30:39.882Z,80.54
2023-02-07T05:31:20.040Z,80.56
2023-02-07T05:32:18.836Z,80.62
2023-02-07T05:33:10.861Z,79.98
2023-02-07T05:34:04.806Z,80.70
2023-02-07T05:34:58.931Z,80.38
2023-02-07T05:35:57.794Z,80.84
2023-02-07T05:36:51.812Z,80.77
2023-02-07T05:37:45.806Z,80.57
2023-02-07T05:38:32.847Z,80.34
2023-02-07T05:39:06.899Z,80.26
2023-02-07T05:39:53.797Z,80.68
2023-02-07T05:40:27.890Z,80.73
2023-02-07T05:41:14.784Z,81.00
2023-02-07T05:41:48.912Z,80.78
2023-02-07T05:42:35.789Z,80.33
2023-02-07T05:43:09.880Z,80.57
2023-02-07T05:43:56.807Z,80.40
2023-02-07T05:44:30.895Z,80.56
2023-02-07T05:45:18.809Z,81.09
2023-02-07T05:45:53.005Z,80.65
2023-02-07T05:46:39.796Z,81.07
2023-02-07T05:47:13.907Z,80.41
2023-02-07T05:48:00.797Z,81.06
2023-02-07T05:48:34.835Z,81.08
2023-02-07T05:49:21.831Z,80.50
2023-02-07T05:49:55.868Z,80.74
2023-02-07T05:50:43.788Z,80.11
2023-02-07T05:51:18.014Z,80.10
2023-02-07T05:52:04.795Z,80.56
2023-02-07T05:52:39.024Z,80.66
2023-02-07T05:53:25.791Z,80.48
2023-02-07T05:53:59.878Z,80.18
2023-02-07T05:54:46.810Z,80.55
2023-02-07T05:55:20.827Z,80.26
2023-02-07T05:56:07.764Z,80.06
2023-02-07T05:56:41.824Z,80.47
2023-02-07T05:57:28.781Z,80.44
2023-02-07T05:58:02.889Z,79.76
2023-02-07T05:58:49.821Z,79.84
2023-02-07T05:59:23.871Z,79.79
2023-02-07T06:00:11.797Z,79.68
2023-02-07T06:00:46.789Z,79.74
2023-02-07T06:01:35.410Z,79.49
2023-02-07T06:02:10.832Z,79.78
2023-02-07T06:02:57.790Z,80.23
2023-02-07T06:03:31.883Z,80.16
2023-02-07T06:04:18.760Z,79.93
2023-02-07T06:04:52.899Z,79.90
2023-02-07T06:05:38.060Z,79.89
2023-02-07T06:06:18.821Z,79.65
2023-02-07T06:06:59.766Z,79.92
2023-02-07T06:07:39.876Z,79.82
2023-02-07T06:08:19.743Z,79.41
2023-02-07T06:08:59.844Z,79.62
2023-02-07T06:09:40.762Z,80.01
2023-02-07T06:10:21.818Z,79.60
2023-02-07T06:11:02.821Z,79.60
2023-02-07T06:11:42.856Z,79.90
2023-02-07T06:12:22.760Z,79.98
2023-02-07T06:13:03.091Z,79.82
2023-02-07T06:13:42.756Z,79.80
2023-02-07T06:14:22.812Z,79.74
2023-02-07T06:15:03.760Z,80.08
2023-02-07T06:15:43.854Z,80.10
2023-02-07T06:16:23.773Z,79.62
2023-02-07T06:17:03.821Z,79.84
2023-02-07T06:17:43.750Z,80.59
2023-02-07T06:18:24.812Z,80.08
2023-02-07T06:19:05.771Z,80.14
2023-02-07T06:19:45.865Z,80.11
2023-02-07T06:20:25.758Z,80.41
2023-02-07T06:21:05.816Z,79.96
2023-02-07T06:21:47.155Z,80.06
2023-02-07T06:22:27.817Z,80.06
2023-02-07T06:23:08.726Z,80.13
2023-02-07T06:23:49.171Z,79.94
2023-02-07T06:24:28.762Z,80.21
2023-02-07T06:25:11.684Z,80.48
2023-02-07T06:25:51.734Z,80.21
2023-02-07T06:26:31.868Z,79.89
2023-02-07T06:27:12.741Z,80.50
2023-02-07T06:27:52.892Z,80.57
2023-02-07T06:28:32.989Z,80.01
2023-02-07T06:29:12.796Z,80.12
2023-02-07T06:29:52.709Z,79.86
2023-02-07T06:30:32.823Z,80.19
2023-02-07T06:31:13.820Z,80.34
2023-02-07T06:31:53.826Z,80.07
2023-02-07T06:32:34.403Z,80.04
2023-02-07T06:33:14.798Z,80.21
2023-02-07T06:33:54.710Z,80.09
2023-02-07T06:34:28.523Z,80.42
2023-02-07T06:35:16.744Z,79.78
2023-02-07T06:35:50.468Z,80.06
2023-02-07T06:36:37.786Z,79.44
2023-02-07T06:37:11.499Z,79.79
2023-02-07T06:37:58.790Z,79.53
2023-02-07T06:38:32.528Z,79.60
2023-02-07T06:39:20.750Z,79.77
2023-02-07T06:39:54.442Z,79.87
2023-02-07T06:40:41.757Z,80.09
2023-02-07T06:41:15.552Z,80.19
2023-02-07T06:42:02.903Z,80.00
2023-02-07T06:42:36.447Z,80.13
2023-02-07T06:43:25.715Z,80.16
2023-02-07T06:43:59.549Z,80.57
2023-02-07T06:44:46.759Z,80.36
2023-02-07T06:45:20.496Z,80.35
2023-02-07T06:46:08.021Z,79.76
2023-02-07T06:46:44.395Z,79.66
2023-02-07T06:47:32.711Z,79.78
2023-02-07T06:48:07.146Z,80.01
2023-02-07T06:48:46.926Z,79.60
2023-02-07T06:49:20.846Z,79.96
2023-02-07T06:49:54.409Z,79.62
2023-02-07T06:50:35.738Z,79.67
2023-02-07T06:51:09.776Z,79.55
2023-02-07T06:51:43.429Z,79.98
2023-02-07T06:52:24.709Z,80.00
2023-02-07T06:53:01.938Z,79.92
2023-02-07T06:53:35.441Z,79.64
2023-02-07T06:54:16.761Z,79.78
2023-02-07T06:54:51.783Z,79.98
2023-02-07T06:55:25.412Z,79.85
2023-02-07T06:56:05.713Z,79.83
2023-02-07T06:56:40.788Z,80.35
2023-02-07T06:57:14.418Z,80.35
2023-02-07T06:57:54.697Z,80.58
2023-02-07T06:58:28.779Z,80.59
2023-02-07T06:59:02.480Z,80.63
2023-02-07T06:59:42.705Z,81.04
2023-02-07T07:00:17.787Z,81.29
2023-02-07T07:00:51.399Z,81.52
2023-02-07T07:01:31.729Z,81.70
2023-02-07T07:02:05.766Z,81.24
2023-02-07T07:02:40.433Z,81.21
2023-02-07T07:03:22.717Z,81.07
2023-02-07T07:03:56.775Z,80.81
2023-02-07T07:04:30.949Z,80.72
2023-02-07T07:05:11.707Z,80.57
2023-02-07T07:05:45.808Z,80.85
2023-02-07T07:06:19.475Z,80.43
2023-02-07T07:07:00.702Z,80.19
2023-02-07T07:07:34.745Z,80.77
2023-02-07T07:08:09.572Z,80.81
2023-02-07T07:10:15.864Z,80.74
2023-02-07T07:10:49.863Z,80.54
2023-02-07T07:11:23.815Z,80.87
2023-02-07T07:12:04.716Z,80.38
2023-02-07T07:12:38.796Z,80.42
2023-02-07T07:13:12.402Z,81.18
2023-02-07T07:13:53.712Z,81.48
2023-02-07T07:14:27.744Z,81.46
2023-02-07T07:15:02.554Z,81.42
2023-02-07T07:15:42.731Z,81.91
2023-02-07T07:16:16.861Z,81.78
2023-02-07T07:16:50.451Z,81.78
2023-02-07T07:17:30.693Z,81.86
2023-02-07T07:18:04.758Z,81.46
2023-02-07T07:18:39.115Z,81.61
2023-02-07T07:19:19.683Z,81.57
2023-02-07T07:19:53.778Z,81.70
2023-02-07T07:20:27.809Z,81.64
2023-02-07T07:21:07.699Z,81.95
2023-02-07T07:21:41.716Z,81.55
2023-02-07T07:22:15.452Z,81.43
2023-02-07T07:22:55.717Z,81.82
2023-02-07T07:23:29.763Z,82.02
2023-02-07T07:24:03.494Z,81.68
2023-02-07T07:24:43.687Z,82.09
2023-02-07T07:25:17.744Z,81.60
2023-02-07T07:25:52.767Z,81.83
2023-02-07T07:26:47.068Z,81.91
2023-02-07T07:27:24.108Z,81.63
2023-02-07T07:27:59.086Z,82.09
2023-02-07T07:28:38.700Z,81.99
2023-02-07T07:29:12.859Z,81.70
2023-02-07T07:29:47.205Z,82.18
2023-02-07T07:30:28.797Z,81.44
2023-02-07T07:31:12.818Z,81.51
2023-02-07T07:31:53.725Z,81.57
2023-02-07T07:32:34.634Z,81.73
2023-02-07T07:33:14.705Z,81.61
2023-02-07T07:33:54.849Z,81.32
2023-02-07T07:34:34.727Z,81.79
2023-02-07T07:35:17.172Z,81.75
2023-02-07T07:36:04.662Z,81.90
2023-02-07T07:36:44.767Z,82.27
2023-02-07T07:37:24.704Z,81.64
2023-02-07T07:38:04.740Z,82.28
2023-02-07T07:38:47.555Z,81.97
2023-02-07T07:39:27.724Z,82.48
2023-02-07T07:40:08.693Z,81.92
2023-02-07T07:40:48.812Z,82.34
2023-02-07T07:41:29.671Z,81.66
2023-02-07T07:42:11.759Z,82.24
2023-02-07T07:42:54.712Z,81.78
2023-02-07T07:43:35.712Z,81.79
2023-02-07T07:44:17.680Z,81.75
2023-02-07T07:44:57.981Z,82.38
2023-02-07T07:45:40.707Z,81.87
2023-02-07T07:46:21.761Z,81.74
2023-02-07T07:47:11.177Z,81.73
2023-02-07T07:47:51.741Z,82.37
2023-02-07T07:48:34.939Z,82.54
2023-02-07T07:49:15.932Z,82.03
2023-02-07T07:49:55.664Z,82.37
2023-02-07T07:50:38.365Z,82.20
2023-02-07T07:51:19.085Z,82.95
2023-02-07T07:52:00.716Z,83.36
2023-02-07T07:52:42.650Z,82.51
2023-02-07T07:53:23.779Z,82.30
2023-02-07T07:54:04.679Z,83.13
2023-02-07T07:54:45.736Z,82.52
2023-02-07T07:55:29.484Z,82.46
2023-02-07T07:56:11.696Z,82.82
2023-02-07T07:56:53.662Z,82.37
2023-02-07T07:57:36.284Z,83.43
2023-02-07T07:58:17.628Z,82.73
2023-02-07T07:59:06.027Z,83.64
2023-02-07T07:59:48.678Z,83.31
2023-02-07T08:00:29.779Z,83.24
2023-02-07T08:01:11.668Z,83.62
2023-02-07T08:01:52.099Z,83.79
2023-02-07T08:02:33.917Z,83.77
2023-02-07T08:03:14.011Z,84.18
2023-02-07T08:03:57.886Z,84.06
2023-02-07T08:04:38.706Z,84.45
2023-02-07T08:05:22.676Z,84.21
2023-02-07T08:06:02.731Z,83.67
2023-02-07T08:06:52.623Z,83.88
2023-02-07T08:07:26.708Z,83.88
2023-02-07T08:08:14.646Z,84.17
2023-02-07T08:08:49.691Z,84.29
2023-02-07T08:09:36.634Z,83.95
2023-02-07T08:10:10.724Z,83.92
2023-02-07T08:10:52.623Z,83.64
2023-02-07T08:11:35.212Z,83.78
2023-02-07T08:12:16.666Z,83.72
2023-02-07T08:12:59.760Z,84.04
2023-02-07T08:13:40.635Z,83.98
2023-02-07T08:14:20.725Z,83.69
2023-02-07T08:15:01.687Z,84.42
2023-02-07T08:15:45.328Z,84.13
2023-02-07T08:16:26.671Z,83.88
2023-02-07T08:17:08.693Z,84.11
2023-02-07T08:17:50.998Z,84.16
2023-02-07T08:18:31.780Z,84.15
2023-02-07T08:19:12.584Z,84.29
2023-02-07T08:20:01.042Z,84.22
2023-02-07T08:20:41.701Z,84.46
2023-02-07T08:21:33.627Z,84.21
2023-02-07T08:22:28.599Z,84.88
2023-02-07T08:23:22.649Z,84.95
2023-02-07T08:24:19.621Z,85.45
2023-02-07T08:25:13.573Z,85.14
2023-02-07T08:26:08.618Z,85.08
2023-02-07T08:26:56.631Z,85.48
2023-02-07T08:27:30.637Z,85.30
2023-02-07T08:28:19.645Z,84.84
2023-02-07T08:28:55.687Z,85.23
2023-02-07T08:29:42.648Z,85.35
2023-02-07T08:30:21.126Z,85.34
2023-02-07T08:31:12.721Z,84.93
2023-02-07T08:31:49.849Z,85.16
2023-02-07T08:32:32.647Z,85.34
2023-02-07T08:33:14.663Z,85.06
2023-02-07T08:33:55.595Z,84.59
2023-02-07T08:34:39.740Z,84.75
2023-02-07T08:35:19.603Z,84.94
2023-02-07T08:36:05.492Z,85.00
2023-02-07T08:36:48.611Z,85.27
2023-02-07T08:37:31.711Z,84.86
2023-02-07T08:38:14.617Z,85.40
2023-02-07T08:38:59.294Z,85.25
2023-02-07T08:39:43.825Z,85.01
2023-02-07T08:40:26.169Z,84.39
2023-02-07T08:41:09.630Z,84.94
2023-02-07T08:41:51.107Z,85.14
2023-02-07T08:42:32.574Z,84.74
2023-02-07T08:43:23.605Z,84.95
2023-02-07T08:44:20.773Z,84.96
2023-02-07T08:45:15.630Z,84.69
2023-02-07T08:46:09.672Z,85.01
2023-02-07T08:47:04.821Z,83.99
2023-02-07T08:48:00.626Z,84.48
2023-02-07T08:48:47.618Z,84.80
2023-02-07T08:49:22.154Z,84.36
2023-02-07T08:50:14.583Z,84.26
2023-02-07T08:50:51.940Z,84.37
2023-02-07T08:51:43.596Z,84.40
2023-02-07T08:52:19.625Z,84.43
2023-02-07T08:53:07.634Z,83.96
2023-02-07T08:53:41.666Z,83.90
2023-02-07T08:54:22.590Z,84.61
2023-02-07T08:55:08.698Z,84.52
2023-02-07T08:55:50.556Z,84.66
2023-02-07T08:56:30.712Z,84.88
2023-02-07T08:57:11.555Z,84.32
2023-02-07T08:57:51.761Z,84.02
2023-02-07T08:58:32.596Z,84.33
2023-02-07T08:59:13.612Z,84.64
2023-02-07T08:59:53.576Z,84.74
2023-02-07T09:00:35.414Z,84.33
2023-02-07T09:01:17.579Z,84.91
2023-02-07T09:01:57.656Z,84.65
2023-02-07T09:02:38.626Z,84.91
2023-02-07T09:03:19.652Z,84.86
2023-02-07T09:04:03.554Z,85.30
2023-02-07T09:04:45.618Z,84.58
2023-02-07T09:05:26.565Z,85.07
2023-02-07T09:06:07.897Z,84.60
2023-02-07T09:06:47.588Z,84.65
2023-02-07T09:07:31.689Z,84.44
2023-02-07T09:08:12.555Z,85.00
2023-02-07T09:08:52.637Z,84.98
2023-02-07T09:09:32.539Z,85.13
2023-02-07T09:10:15.406Z,85.33
2023-02-07T09:10:55.780Z,85.71
2023-02-07T09:11:36.672Z,85.10
2023-02-07T09:12:18.542Z,85.91
2023-02-07T09:12:59.594Z,84.97
2023-02-07T09:13:40.559Z,84.99
2023-02-07T09:14:20.675Z,85.21
2023-02-07T09:15:00.562Z,85.60
2023-02-07T09:15:40.604Z,85.51
2023-02-07T09:16:23.638Z,85.55
2023-02-07T09:17:03.617Z,86.60
2023-02-07T09:17:43.562Z,86.15
2023-02-07T09:18:23.611Z,86.03
2023-02-07T09:19:05.545Z,86.37
2023-02-07T09:19:45.711Z,85.95
2023-02-07T09:20:26.548Z,85.66
2023-02-07T09:21:21.591Z,85.39
2023-02-07T09:22:01.544Z,85.29
2023-02-07T09:23:00.391Z,85.63
2023-02-07T09:23:42.536Z,85.89
2023-02-07T09:24:22.645Z,86.28
2023-02-07T09:25:03.537Z,85.74
2023-02-07T09:25:47.025Z,85.58
2023-02-07T09:26:29.582Z,85.42
2023-02-07T09:27:09.598Z,85.17
2023-02-07T09:27:50.565Z,85.52
2023-02-07T09:28:30.679Z,85.90
2023-02-07T09:29:12.526Z,86.10
2023-02-07T09:29:52.591Z,86.36
2023-02-07T09:30:32.554Z,85.89